Time;durP1;ratioP1;P1;durP2;ratioP2;P2;SDS_P1;SDS_P2;PMS_P1;PMS_P2;Temp;Humidity;BMP_temperature;BMP_pressure;BME280_temperature;BME280_humidity;BME280_pressure;Samples;Min_cycle;Max_cycle;Signal;HPM_P1;HPM_P2
2022/03/14 00:02:25;;;;;;;0.20;0.20;;;;;;;;;;4905018;29;20514;-91
2022/03/14 00:04:51;;;;;;;0.10;0.10;;;;;;;;;;4888988;29;20060;-92
2022/03/14 00:07:18;;;;;;;0.13;0.13;;;;;;;;;;4904942;29;20043;-91
2022/03/14 00:09:44;;;;;;;0.63;0.63;;;;;;;;;;4889383;29;20122;-92
2022/03/14 00:12:13;;;;;;;0.10;0.10;;;;;;;;;;4904976;29;20085;-91
2022/03/14 00:14:39;;;;;;;0.10;0.10;;;;;;;;;;4889571;29;20044;-91
2022/03/14 00:17:09;;;;;;;0.10;0.10;;;;;;;;;;4920535;29;20496;-92
2022/03/14 00:19:35;;;;;;;0.20;0.20;;;;;;;;;;4905031;29;20187;-91
2022/03/14 00:22:02;;;;;;;0.10;0.10;;;;;;;;;;4904214;29;20092;-90
2022/03/14 00:24:28;;;;;;;0.25;0.25;;;;;;;;;;4888491;29;20078;-90
2022/03/14 00:26:54;;;;;;;0.10;0.10;;;;;;;;;;4888823;29;20046;-89
2022/03/14 00:29:20;;;;;;;0.20;0.20;;;;;;;;;;4888779;29;20040;-90
2022/03/14 00:31:46;;;;;;;0.10;0.10;;;;;;;;;;4904049;29;20094;-89
2022/03/14 00:34:13;;;;;;;0.10;0.10;;;;;;;;;;4919620;29;20120;-89
2022/03/14 00:36:41;;;;;;;0.17;0.17;;;;;;;;;;4904172;29;20502;-90
2022/03/14 00:39:07;;;;;;;0.10;0.10;;;;;;;;;;4888617;29;20075;-89
2022/03/14 00:41:33;;;;;;;0.10;0.10;;;;;;;;;;4903992;29;20074;-91
2022/03/14 00:43:59;;;;;;;0.20;0.20;;;;;;;;;;4888202;29;20050;-90
2022/03/14 00:46:25;;;;;;;0.10;0.10;;;;;;;;;;4888180;29;20503;-89
2022/03/14 00:48:51;;;;;;;0.10;0.10;;;;;;;;;;4903866;29;20075;-90
2022/03/14 00:51:17;;;;;;;0.10;0.10;;;;;;;;;;4887822;29;20036;-89
2022/03/14 00:53:43;;;;;;;0.10;0.10;;;;;;;;;;4887991;29;20519;-91
2022/03/14 00:56:09;;;;;;;0.10;0.10;;;;;;;;;;4887946;29;20070;-90
2022/03/14 00:58:35;;;;;;;0.10;0.10;;;;;;;;;;4903805;29;20040;-91
2022/03/14 01:01:01;;;;;;;0.10;0.10;;;;;;;;;;4903743;29;20049;-91
2022/03/14 01:03:27;;;;;;;0.10;0.10;;;;;;;;;;4887516;29;20086;-91
2022/03/14 01:05:53;;;;;;;0.10;0.10;;;;;;;;;;4888579;29;20048;-91
2022/03/14 01:08:19;;;;;;;0.40;0.40;;;;;;;;;;4888451;29;20039;-90
2022/03/14 01:10:47;;;;;;;0.10;0.10;;;;;;;;;;4903539;29;20040;-90
2022/03/14 01:13:13;;;;;;;0.55;0.43;;;;;;;;;;4888187;29;20054;-91
2022/03/14 01:15:39;;;;;;;0.10;0.10;;;;;;;;;;4887904;29;20052;-91
2022/03/14 01:18:05;;;;;;;0.20;0.20;;;;;;;;;;4888140;29;20082;-90
2022/03/14 01:20:33;;;;;;;0.10;0.10;;;;;;;;;;4888650;29;20231;-91
2022/03/14 01:22:58;;;;;;;0.10;0.10;;;;;;;;;;4887949;29;20043;-90
2022/03/14 01:25:24;;;;;;;0.10;0.10;;;;;;;;;;4887847;29;20047;-90
2022/03/14 01:27:51;;;;;;;0.10;0.10;;;;;;;;;;4887994;29;20058;-90
2022/03/14 01:30:18;;;;;;;0.10;0.10;;;;;;;;;;4887835;29;20505;-90
2022/03/14 01:32:44;;;;;;;0.10;0.10;;;;;;;;;;4887927;29;20476;-90
2022/03/14 01:35:10;;;;;;;0.10;0.10;;;;;;;;;;4887509;29;20047;-90
2022/03/14 01:37:36;;;;;;;0.10;0.10;;;;;;;;;;4887942;29;20038;-90
2022/03/14 01:40:02;;;;;;;0.10;0.10;;;;;;;;;;4919285;29;20043;-90
2022/03/14 01:42:28;;;;;;;0.10;0.10;;;;;;;;;;4887515;29;20122;-89
2022/03/14 01:44:54;;;;;;;0.10;0.10;;;;;;;;;;4902378;29;20111;-90
2022/03/14 01:47:20;;;;;;;0.10;0.10;;;;;;;;;;4887698;29;20503;-90
2022/03/14 01:49:48;;;;;;;0.10;0.10;;;;;;;;;;4888139;29;20059;-89
2022/03/14 01:52:14;;;;;;;0.10;0.10;;;;;;;;;;4903158;29;20452;-90
2022/03/14 01:54:43;;;;;;;0.10;0.10;;;;;;;;;;4903106;29;20095;-90
2022/03/14 01:57:09;;;;;;;0.10;0.10;;;;;;;;;;4887354;29;20095;-90
2022/03/14 01:59:37;;;;;;;0.10;0.10;;;;;;;;;;4887914;29;20047;-90
2022/03/14 02:02:03;;;;;;;0.10;0.10;;;;;;;;;;4888501;29;20040;-90
2022/03/14 02:04:29;;;;;;;0.10;0.10;;;;;;;;;;4891135;29;20056;-88
2022/03/14 02:06:57;;;;;;;0.10;0.10;;;;;;;;;;4891354;29;20054;-90
2022/03/14 02:09:23;;;;;;;0.10;0.10;;;;;;;;;;4891834;29;20387;-92
2022/03/14 02:11:55;;;;;;;0.10;0.10;;;;;;;;;;4906855;29;20043;-90
2022/03/14 02:14:21;;;;;;;0.10;0.10;;;;;;;;;;4922575;29;20044;-90
2022/03/14 02:16:47;;;;;;;0.10;0.10;;;;;;;;;;4921972;29;20496;-90
2022/03/14 02:19:13;;;;;;;0.10;0.10;;;;;;;;;;4891042;29;20048;-90
2022/03/14 02:21:40;;;;;;;0.10;0.10;;;;;;;;;;4906592;29;20052;-90
2022/03/14 02:24:06;;;;;;;0.10;0.10;;;;;;;;;;4891090;29;20111;-89
2022/03/14 02:26:38;;;;;;;0.10;0.10;;;;;;;;;;4921645;29;20056;-91
2022/03/14 02:29:04;;;;;;;0.10;0.10;;;;;;;;;;4890539;29;20048;-90
2022/03/14 02:31:30;;;;;;;0.40;0.20;;;;;;;;;;4890282;29;20046;-90
2022/03/14 02:33:56;;;;;;;0.10;0.10;;;;;;;;;;4890808;29;20048;-90
2022/03/14 02:36:22;;;;;;;0.10;0.10;;;;;;;;;;4890787;29;20054;-90
2022/03/14 02:38:48;;;;;;;0.10;0.10;;;;;;;;;;4922154;29;20047;-90
2022/03/14 02:41:14;;;;;;;0.10;0.10;;;;;;;;;;4921899;29;20102;-90
2022/03/14 02:43:40;;;;;;;0.10;0.10;;;;;;;;;;4921636;29;20048;-89
2022/03/14 02:46:06;;;;;;;0.10;0.10;;;;;;;;;;4905435;29;20055;-89
2022/03/14 02:48:32;;;;;;;0.10;0.10;;;;;;;;;;4906024;29;20043;-90
2022/03/14 02:50:58;;;;;;;0.10;0.10;;;;;;;;;;4921666;29;20484;-90
2022/03/14 02:53:24;;;;;;;0.10;0.10;;;;;;;;;;4890375;29;20043;-89
2022/03/14 02:55:50;;;;;;;0.10;0.10;;;;;;;;;;4921378;29;20054;-90
2022/03/14 02:58:16;;;;;;;0.10;0.10;;;;;;;;;;4890461;29;20114;-89
2022/03/14 03:00:42;;;;;;;0.10;0.10;;;;;;;;;;4890275;29;20047;-90
2022/03/14 03:03:10;;;;;;;0.10;0.10;;;;;;;;;;4905941;29;20348;-89
2022/03/14 03:05:37;;;;;;;0.20;0.20;;;;;;;;;;4905562;29;20055;-89
2022/03/14 03:08:03;;;;;;;0.45;0.20;;;;;;;;;;4889232;29;20488;-89
2022/03/14 03:10:29;;;;;;;0.10;0.10;;;;;;;;;;4889916;29;20054;-90
2022/03/14 03:12:55;;;;;;;0.10;0.10;;;;;;;;;;4905463;29;20050;-92
2022/03/14 03:15:23;;;;;;;0.10;0.10;;;;;;;;;;4889358;29;20040;-91
2022/03/14 03:17:49;;;;;;;0.10;0.10;;;;;;;;;;4906101;29;20048;-91
2022/03/14 03:20:15;;;;;;;0.10;0.10;;;;;;;;;;4890481;29;20046;-90
2022/03/14 03:22:41;;;;;;;0.10;0.10;;;;;;;;;;4905496;29;20044;-91
2022/03/14 03:25:08;;;;;;;0.10;0.10;;;;;;;;;;4890366;29;20159;-90
2022/03/14 03:27:34;;;;;;;0.10;0.10;;;;;;;;;;4889867;29;20091;-91
2022/03/14 03:30:00;;;;;;;0.10;0.10;;;;;;;;;;4905600;29;20043;-91
2022/03/14 03:32:26;;;;;;;0.10;0.10;;;;;;;;;;4905467;29;20526;-91
2022/03/14 03:34:52;;;;;;;0.10;0.10;;;;;;;;;;4889778;29;20047;-90
2022/03/14 03:37:18;;;;;;;0.25;0.25;;;;;;;;;;4905509;29;20051;-91
2022/03/14 03:39:44;;;;;;;0.10;0.10;;;;;;;;;;4905266;29;20117;-91
2022/03/14 03:42:10;;;;;;;0.10;0.10;;;;;;;;;;4889558;29;20051;-92
2022/03/14 03:44:36;;;;;;;0.10;0.10;;;;;;;;;;4889426;29;20048;-92
2022/03/14 03:47:02;;;;;;;0.10;0.10;;;;;;;;;;4905442;29;20147;-91
2022/03/14 03:49:28;;;;;;;0.10;0.10;;;;;;;;;;4904756;29;20043;-88
2022/03/14 03:51:54;;;;;;;0.10;0.10;;;;;;;;;;4904586;29;20122;-88
2022/03/14 03:54:21;;;;;;;0.10;0.10;;;;;;;;;;4904887;29;20040;-89
2022/03/14 03:56:47;;;;;;;0.10;0.10;;;;;;;;;;4888864;29;20508;-90
2022/03/14 03:59:13;;;;;;;0.10;0.10;;;;;;;;;;4890903;29;20110;-90
2022/03/14 04:01:39;;;;;;;0.10;0.10;;;;;;;;;;4894044;29;20484;-91
2022/03/14 04:04:05;;;;;;;0.10;0.10;;;;;;;;;;4893604;29;20099;-90
2022/03/14 04:06:31;;;;;;;0.10;0.10;;;;;;;;;;4893141;29;20210;-89
2022/03/14 04:09:00;;;;;;;0.10;0.10;;;;;;;;;;4889181;29;20043;-90
2022/03/14 04:11:26;;;;;;;0.10;0.10;;;;;;;;;;4889290;29;20071;-90
2022/03/14 04:13:53;;;;;;;0.10;0.10;;;;;;;;;;4920703;29;20043;-91
2022/03/14 04:16:21;;;;;;;0.10;0.10;;;;;;;;;;4905338;29;20411;-91
2022/03/14 04:18:47;;;;;;;0.20;0.20;;;;;;;;;;4889460;29;20044;-92
2022/03/14 04:21:13;;;;;;;0.10;0.10;;;;;;;;;;4889532;29;20039;-91
2022/03/14 04:23:39;;;;;;;0.10;0.10;;;;;;;;;;4889705;29;20131;-91
2022/03/14 04:26:05;;;;;;;0.10;0.10;;;;;;;;;;4888723;29;20048;-90
2022/03/14 04:28:31;;;;;;;0.10;0.10;;;;;;;;;;4888547;29;20067;-91
2022/03/14 04:30:58;;;;;;;0.10;0.10;;;;;;;;;;4888988;29;20043;-91
2022/03/14 04:33:25;;;;;;;0.10;0.10;;;;;;;;;;4888806;29;20051;-91
2022/03/14 04:35:51;;;;;;;0.10;0.10;;;;;;;;;;4888831;29;20047;-91
2022/03/14 04:38:17;;;;;;;0.10;0.10;;;;;;;;;;4904092;29;20047;-90
2022/03/14 04:40:43;;;;;;;0.10;0.10;;;;;;;;;;4888446;29;20047;-89
2022/03/14 04:43:10;;;;;;;0.10;0.10;;;;;;;;;;4888057;29;20455;-89
2022/03/14 04:45:36;;;;;;;0.10;0.10;;;;;;;;;;4888176;29;20099;-89
2022/03/14 04:48:02;;;;;;;0.10;0.10;;;;;;;;;;4888089;29;20127;-90
2022/03/14 04:50:28;;;;;;;0.10;0.10;;;;;;;;;;4903939;29;20047;-89
2022/03/14 04:52:54;;;;;;;0.10;0.10;;;;;;;;;;4903208;29;20047;-88
2022/03/14 04:55:21;;;;;;;0.10;0.10;;;;;;;;;;4888127;29;20102;-89
2022/03/14 04:57:47;;;;;;;0.10;0.10;;;;;;;;;;4903538;29;20403;-88
2022/03/14 05:00:13;;;;;;;0.10;0.10;;;;;;;;;;4888236;29;20106;-90
2022/03/14 05:02:39;;;;;;;0.10;0.10;;;;;;;;;;4919077;29;20130;-90
2022/03/14 05:05:05;;;;;;;0.10;0.10;;;;;;;;;;4903691;29;20108;-90
2022/03/14 05:07:31;;;;;;;0.10;0.10;;;;;;;;;;4903463;29;20506;-90
2022/03/14 05:09:57;;;;;;;0.10;0.10;;;;;;;;;;4903508;29;20048;-91
2022/03/14 05:12:24;;;;;;;0.10;0.10;;;;;;;;;;4888369;29;20036;-91
2022/03/14 05:14:51;;;;;;;0.10;0.10;;;;;;;;;;4888343;29;20130;-91
2022/03/14 05:17:17;;;;;;;0.10;0.10;;;;;;;;;;4888154;29;20039;-90
2022/03/14 05:19:43;;;;;;;0.10;0.10;;;;;;;;;;4919526;29;20055;-91
2022/03/14 05:22:09;;;;;;;0.10;0.10;;;;;;;;;;4903872;29;20040;-90
2022/03/14 05:24:35;;;;;;;0.10;0.10;;;;;;;;;;4903574;29;20480;-91
2022/03/14 05:27:01;;;;;;;0.10;0.10;;;;;;;;;;4888132;29;20459;-89
2022/03/14 05:29:27;;;;;;;0.10;0.10;;;;;;;;;;4888127;29;20360;-90
2022/03/14 05:31:53;;;;;;;0.10;0.10;;;;;;;;;;4887872;29;20047;-90
2022/03/14 05:34:21;;;;;;;0.10;0.10;;;;;;;;;;4919194;29;20051;-91
2022/03/14 05:36:47;;;;;;;0.10;0.10;;;;;;;;;;4919496;29;20089;-91
2022/03/14 05:39:13;;;;;;;0.10;0.10;;;;;;;;;;4891940;29;20075;-90
2022/03/14 05:41:39;;;;;;;0.10;0.10;;;;;;;;;;4891285;29;20043;-90
2022/03/14 05:44:05;;;;;;;0.10;0.10;;;;;;;;;;4907241;29;20499;-91
2022/03/14 05:46:31;;;;;;;0.10;0.10;;;;;;;;;;4922892;29;20405;-89
2022/03/14 05:48:57;;;;;;;0.10;0.10;;;;;;;;;;4906334;29;20040;-88
2022/03/14 05:51:23;;;;;;;0.10;0.10;;;;;;;;;;4891184;29;20126;-90
2022/03/14 05:53:49;;;;;;;0.10;0.10;;;;;;;;;;4907302;29;20082;-89
2022/03/14 05:56:15;;;;;;;0.10;0.10;;;;;;;;;;4922696;29;20039;-91
2022/03/14 05:58:41;;;;;;;0.10;0.10;;;;;;;;;;4891865;29;20050;-91
2022/03/14 06:01:07;;;;;;;0.10;0.10;;;;;;;;;;4907025;29;20083;-90
2022/03/14 06:03:33;;;;;;;0.10;0.10;;;;;;;;;;4891152;29;20082;-90
2022/03/14 06:05:59;;;;;;;0.10;0.10;;;;;;;;;;4890380;29;20047;-90
2022/03/14 06:08:24;;;;;;;0.10;0.10;;;;;;;;;;4966223;23;1134059;-89
2022/03/14 06:10:51;;;;;;;0.10;0.10;;;;;;;;;;4938204;29;20411;-89
2022/03/14 06:13:17;;;;;;;0.10;0.10;;;;;;;;;;4938011;29;20241;-88
2022/03/14 06:15:45;;;;;;;0.10;0.10;;;;;;;;;;4937235;29;20043;-87
2022/03/14 06:18:11;;;;;;;0.10;0.10;;;;;;;;;;4921680;29;20091;-88
2022/03/14 06:20:37;;;;;;;0.15;0.15;;;;;;;;;;4905653;29;20039;-88
2022/03/14 06:23:03;;;;;;;0.10;0.10;;;;;;;;;;4905552;29;20048;-87
2022/03/14 06:25:29;;;;;;;0.10;0.10;;;;;;;;;;4921386;29;20368;-87
2022/03/14 06:27:55;;;;;;;0.10;0.10;;;;;;;;;;4905198;29;20367;-87
2022/03/14 06:30:21;;;;;;;0.10;0.10;;;;;;;;;;4921265;29;20048;-86
2022/03/14 06:32:48;;;;;;;0.10;0.10;;;;;;;;;;4905906;29;20135;-86
2022/03/14 06:35:14;;;;;;;0.10;0.10;;;;;;;;;;4921096;29;20078;-86
2022/03/14 06:37:41;;;;;;;0.10;0.10;;;;;;;;;;4905688;29;20503;-87
2022/03/14 06:40:07;;;;;;;0.10;0.10;;;;;;;;;;4905525;29;20043;-87
2022/03/14 06:42:36;;;;;;;0.10;0.10;;;;;;;;;;4905405;29;20040;-87
2022/03/14 06:45:03;;;;;;;0.10;0.10;;;;;;;;;;4920712;29;20122;-87
2022/03/14 06:47:29;;;;;;;0.10;0.10;;;;;;;;;;4905315;29;20040;-87
2022/03/14 06:49:55;;;;;;;0.10;0.10;;;;;;;;;;4905053;29;20495;-88
2022/03/14 06:52:21;;;;;;;0.10;0.10;;;;;;;;;;4921371;29;20058;-87
2022/03/14 06:54:47;;;;;;;0.10;0.10;;;;;;;;;;4905207;29;20043;-88
2022/03/14 06:57:13;;;;;;;0.10;0.10;;;;;;;;;;4905287;29;20059;-88
2022/03/14 06:59:39;;;;;;;0.10;0.10;;;;;;;;;;4905169;29;20126;-87
2022/03/14 07:02:05;;;;;;;0.10;0.10;;;;;;;;;;4905150;29;20046;-88
2022/03/14 07:04:31;;;;;;;0.10;0.10;;;;;;;;;;4905177;29;20115;-88
2022/03/14 07:06:59;;;;;;;0.10;0.10;;;;;;;;;;4905395;29;20051;-89
2022/03/14 07:09:25;;;;;;;0.10;0.10;;;;;;;;;;4920346;29;20051;-90
2022/03/14 07:11:54;;;;;;;0.17;0.17;;;;;;;;;;4905823;29;20044;-90
2022/03/14 07:14:20;;;;;;;0.10;0.10;;;;;;;;;;4921157;29;20059;-90
2022/03/14 07:16:46;;;;;;;0.10;0.10;;;;;;;;;;4920492;29;20131;-90
2022/03/14 07:19:12;;;;;;;0.10;0.10;;;;;;;;;;4921082;29;20040;-89
2022/03/14 07:21:38;;;;;;;0.10;0.10;;;;;;;;;;4905369;29;20103;-89
2022/03/14 07:24:04;;;;;;;0.10;0.10;;;;;;;;;;4905125;29;20079;-91
2022/03/14 07:26:30;;;;;;;0.10;0.10;;;;;;;;;;4905026;29;20134;-90
2022/03/14 07:28:56;;;;;;;0.10;0.10;;;;;;;;;;4921231;29;20523;-92
2022/03/14 07:31:22;;;;;;;0.10;0.10;;;;;;;;;;4906177;29;20484;-91
2022/03/14 07:33:49;;;;;;;0.10;0.10;;;;;;;;;;4905112;29;20071;-90
2022/03/14 07:36:15;;;;;;;0.10;0.10;;;;;;;;;;4904719;29;20050;-90
2022/03/14 07:38:41;;;;;;;0.10;0.10;;;;;;;;;;4905163;29;20051;-89
2022/03/14 07:41:08;;;;;;;0.10;0.10;;;;;;;;;;4910212;29;20405;-90
2022/03/14 07:43:34;;;;;;;0.10;0.10;;;;;;;;;;4923536;29;20046;-88
2022/03/14 07:46:01;;;;;;;0.10;0.10;;;;;;;;;;4912601;29;20043;-88
2022/03/14 07:48:27;;;;;;;0.20;0.20;;;;;;;;;;4920399;29;20143;-88
2022/03/14 07:50:53;;;;;;;0.10;0.10;;;;;;;;;;4905989;29;20115;-89
2022/03/14 07:53:20;;;;;;;0.10;0.10;;;;;;;;;;4936173;29;20047;-88
2022/03/14 07:55:46;;;;;;;0.10;0.10;;;;;;;;;;4919404;29;20376;-91
2022/03/14 07:58:12;;;;;;;0.10;0.10;;;;;;;;;;4915898;29;20048;-91
2022/03/14 08:00:38;;;;;;;0.10;0.10;;;;;;;;;;4888379;29;20134;-91
2022/03/14 08:03:04;;;;;;;0.10;0.10;;;;;;;;;;4904950;29;20092;-89
2022/03/14 08:05:30;;;;;;;0.10;0.10;;;;;;;;;;4919805;29;20050;-93
2022/03/14 08:07:57;;;;;;;0.10;0.10;;;;;;;;;;4904388;29;20055;-87
2022/03/14 08:10:23;;;;;;;0.10;0.10;;;;;;;;;;4904122;29;20399;-89
2022/03/14 08:12:50;;;;;;;0.10;0.10;;;;;;;;;;4903632;29;20054;-89
2022/03/14 08:15:20;;;;;;;0.10;0.10;;;;;;;;;;4903694;29;20048;-89
2022/03/14 08:17:47;;;;;;;0.10;0.10;;;;;;;;;;4903220;29;20144;-94
2022/03/14 08:20:13;;;;;;;0.10;0.10;;;;;;;;;;4903698;29;20040;-89
2022/03/14 08:22:40;;;;;;;0.20;0.20;;;;;;;;;;4903749;29;20059;-88
2022/03/14 08:25:06;;;;;;;0.10;0.10;;;;;;;;;;4918896;29;20102;-88
2022/03/14 08:27:32;;;;;;;0.10;0.10;;;;;;;;;;4903890;29;20507;-87
2022/03/14 08:29:58;;;;;;;0.10;0.10;;;;;;;;;;4903173;29;20096;-89
2022/03/14 08:32:24;;;;;;;0.10;0.10;;;;;;;;;;4918920;29;20046;-90
2022/03/14 08:34:53;;;;;;;0.10;0.10;;;;;;;;;;4903159;29;20043;-89
2022/03/14 08:37:19;;;;;;;0.10;0.10;;;;;;;;;;4904212;29;20183;-90
2022/03/14 08:39:46;;;;;;;0.10;0.10;;;;;;;;;;4903587;29;20059;-88
2022/03/14 08:42:12;;;;;;;0.10;0.10;;;;;;;;;;4919109;29;20055;-89
2022/03/14 08:44:38;;;;;;;0.80;0.30;;;;;;;;;;4918671;29;20043;-88
2022/03/14 08:47:04;;;;;;;0.10;0.10;;;;;;;;;;4903441;29;20039;-88
2022/03/14 08:49:30;;;;;;;0.10;0.10;;;;;;;;;;4902862;29;20043;-88
2022/03/14 08:51:56;;;;;;;0.10;0.10;;;;;;;;;;4903361;29;20046;-90
2022/03/14 08:54:22;;;;;;;0.10;0.10;;;;;;;;;;4903554;29;20040;-92
2022/03/14 08:56:48;;;;;;;0.10;0.10;;;;;;;;;;4903132;29;20044;-88
2022/03/14 08:59:14;;;;;;;0.10;0.10;;;;;;;;;;4918807;29;20072;-89
2022/03/14 09:01:40;;;;;;;0.10;0.10;;;;;;;;;;4903411;29;20055;-90
2022/03/14 09:04:06;;;;;;;0.10;0.10;;;;;;;;;;4903159;29;20047;-90
2022/03/14 09:06:35;;;;;;;0.10;0.10;;;;;;;;;;4903297;29;20047;-90
2022/03/14 09:09:01;;;;;;;0.10;0.10;;;;;;;;;;4903527;29;20060;-91
2022/03/14 09:11:27;;;;;;;0.10;0.10;;;;;;;;;;4903216;29;20067;-91
2022/03/14 09:13:53;;;;;;;0.10;0.10;;;;;;;;;;4903226;29;20059;-94
2022/03/14 09:16:20;;;;;;;0.20;0.20;;;;;;;;;;4903448;29;20048;-90
2022/03/14 09:18:46;;;;;;;0.10;0.10;;;;;;;;;;4903586;29;20044;-90
2022/03/14 09:21:14;;;;;;;0.00;0.00;;;;;;;;;;4903157;29;20051;-90
2022/03/14 09:23:40;;;;;;;0.10;0.10;;;;;;;;;;4918485;29;20122;-89
2022/03/14 09:26:06;;;;;;;0.10;0.10;;;;;;;;;;4903243;29;20496;-90
2022/03/14 09:28:32;;;;;;;0.10;0.10;;;;;;;;;;4903515;29;20148;-91
2022/03/14 09:30:58;;;;;;;0.10;0.10;;;;;;;;;;4903045;29;20131;-91
2022/03/14 09:33:24;;;;;;;0.10;0.10;;;;;;;;;;4902780;29;20043;-89
2022/03/14 09:35:51;;;;;;;0.10;0.10;;;;;;;;;;4902605;29;20047;-89
2022/03/14 09:38:17;;;;;;;0.10;0.10;;;;;;;;;;4902648;29;20099;-89
2022/03/14 09:40:44;;;;;;;0.10;0.10;;;;;;;;;;4899143;29;20127;-89
2022/03/14 09:43:10;;;;;;;0.10;0.10;;;;;;;;;;4907287;29;20048;-89
2022/03/14 09:45:36;;;;;;;0.20;0.20;;;;;;;;;;4902227;29;20377;-89
2022/03/14 09:48:02;;;;;;;0.10;0.10;;;;;;;;;;4902559;29;20035;-88
2022/03/14 09:50:35;;;;;;;0.10;0.10;;;;;;;;;;4902656;29;20040;-90
2022/03/14 09:53:07;;;;;;;0.13;0.13;;;;;;;;;;4902666;29;20043;-90
2022/03/14 09:55:43;;;;;;;0.17;0.17;;;;;;;;;;4902179;29;20126;-89
2022/03/14 09:58:10;;;;;;;0.10;0.10;;;;;;;;;;4903607;29;20043;-89
2022/03/14 10:00:36;;;;;;;0.10;0.10;;;;;;;;;;4902038;29;20043;-89
2022/03/14 10:03:03;;;;;;;0.10;0.10;;;;;;;;;;4902472;29;20039;-90
2022/03/14 10:05:29;;;;;;;0.10;0.10;;;;;;;;;;4903146;29;20484;-89
2022/03/14 10:07:55;;;;;;;0.10;0.10;;;;;;;;;;4902525;29;20052;-89
2022/03/14 10:10:21;;;;;;;0.10;0.10;;;;;;;;;;4903236;29;20052;-92
2022/03/14 10:12:54;;;;;;;0.10;0.10;;;;;;;;;;4905065;29;20062;-92
2022/03/14 10:15:23;;;;;;;0.10;0.10;;;;;;;;;;4905398;29;20050;-91
2022/03/14 10:17:51;;;;;;;0.20;0.20;;;;;;;;;;4903259;29;20495;-90
2022/03/14 10:20:17;;;;;;;0.10;0.10;;;;;;;;;;4903848;29;20407;-91
2022/03/14 10:22:44;;;;;;;0.10;0.10;;;;;;;;;;4903492;29;20072;-92
2022/03/14 10:25:11;;;;;;;0.38;0.38;;;;;;;;;;4907014;29;20144;-93
2022/03/14 10:27:37;;;;;;;0.10;0.10;;;;;;;;;;4908570;29;20040;-91
2022/03/14 10:30:04;;;;;;;0.10;0.10;;;;;;;;;;4906834;29;20044;-93
2022/03/14 10:32:30;;;;;;;0.30;0.30;;;;;;;;;;4907926;29;20525;-91
2022/03/14 10:35:01;;;;;;;0.10;0.10;;;;;;;;;;4906825;29;20055;-92
2022/03/14 10:37:28;;;;;;;0.20;0.13;;;;;;;;;;4907023;29;20126;-92
2022/03/14 10:39:58;;;;;;;0.10;0.10;;;;;;;;;;4907185;29;20061;-93
2022/03/14 10:42:24;;;;;;;0.10;0.10;;;;;;;;;;4906769;29;20484;-94
2022/03/14 10:44:51;;;;;;;0.10;0.10;;;;;;;;;;4907243;29;20035;-93
2022/03/14 10:47:19;;;;;;;0.15;0.15;;;;;;;;;;4907755;29;20039;-96
2022/03/14 10:49:45;;;;;;;0.10;0.10;;;;;;;;;;4909288;29;20091;-93
2022/03/14 10:52:13;;;;;;;0.10;0.10;;;;;;;;;;4909931;29;20044;-94
2022/03/14 10:54:40;;;;;;;0.05;0.05;;;;;;;;;;4907571;29;20047;-92
2022/03/14 10:57:10;;;;;;;0.10;0.10;;;;;;;;;;4906955;29;20048;-92
2022/03/14 10:59:37;;;;;;;0.75;0.35;;;;;;;;;;4906521;29;20483;-92
2022/03/14 11:02:06;;;;;;;0.10;0.10;;;;;;;;;;4907724;29;20053;-95
2022/03/14 11:04:45;;;;;;;0.47;0.30;;;;;;;;;;4923935;29;20258;-94
2022/03/14 11:07:11;;;;;;;0.10;0.10;;;;;;;;;;4922196;29;20046;-93
2022/03/14 11:09:38;;;;;;;0.10;0.10;;;;;;;;;;4906862;29;20059;-91
2022/03/14 11:12:08;;;;;;;0.10;0.10;;;;;;;;;;4907667;29;20047;-94
2022/03/14 11:14:34;;;;;;;0.20;0.20;;;;;;;;;;4906702;29;20052;-93
2022/03/14 11:17:10;;;;;;;0.22;0.22;;;;;;;;;;4907296;29;20071;-95
2022/03/14 11:19:38;;;;;;;0.22;0.22;;;;;;;;;;4906777;29;20051;-93
2022/03/14 11:22:05;;;;;;;0.10;0.10;;;;;;;;;;4906554;29;20051;-96
2022/03/14 11:24:31;;;;;;;0.10;0.10;;;;;;;;;;4906588;29;20044;-91
2022/03/14 11:26:57;;;;;;;0.10;0.10;;;;;;;;;;4905985;29;20058;-93
2022/03/14 11:29:24;;;;;;;0.20;0.20;;;;;;;;;;4905691;29;20079;-92
2022/03/14 11:31:52;;;;;;;0.10;0.10;;;;;;;;;;4906227;29;20039;-91
2022/03/14 11:34:18;;;;;;;0.88;0.30;;;;;;;;;;4905309;29;20130;-91
2022/03/14 11:36:47;;;;;;;0.10;0.10;;;;;;;;;;4907300;29;20052;-95
2022/03/14 11:39:13;;;;;;;0.10;0.10;;;;;;;;;;4937986;29;20127;-93
2022/03/14 11:41:42;;;;;;;0.10;0.10;;;;;;;;;;4905915;29;20075;-93
2022/03/14 11:44:08;;;;;;;0.10;0.10;;;;;;;;;;4921603;29;20047;-88
2022/03/14 11:46:35;;;;;;;0.10;0.10;;;;;;;;;;4937440;29;20054;-93
2022/03/14 11:49:12;;;;;;;0.10;0.10;;;;;;;;;;4906166;29;20039;-95
2022/03/14 11:51:40;;;;;;;0.10;0.10;;;;;;;;;;4906506;29;20130;-95
2022/03/14 11:54:11;;;;;;;0.20;0.20;;;;;;;;;;4906073;29;20130;-93
2022/03/14 11:56:38;;;;;;;4.85;0.38;;;;;;;;;;4906932;29;20047;-92
2022/03/14 11:59:09;;;;;;;0.10;0.10;;;;;;;;;;4906232;29;20492;-91
2022/03/14 12:01:35;;;;;;;0.10;0.10;;;;;;;;;;4905981;29;20150;-93
2022/03/14 12:04:10;;;;;;;0.10;0.10;;;;;;;;;;4905903;29;20492;-93
2022/03/14 12:06:49;;;;;;;0.10;0.10;;;;;;;;;;4910049;29;20168;-95
2022/03/14 12:09:38;;;;;;;0.20;0.20;;;;;;;;;;4940503;29;20067;-94
2022/03/14 12:12:14;;;;;;;0.10;0.10;;;;;;;;;;4917438;29;20043;-95
2022/03/14 12:14:44;;;;;;;0.10;0.10;;;;;;;;;;4921661;29;20036;-92
2022/03/14 12:17:13;;;;;;;0.13;0.13;;;;;;;;;;4905345;29;20079;-93
2022/03/14 12:19:40;;;;;;;0.30;0.30;;;;;;;;;;4936979;29;20047;-93
2022/03/14 12:22:07;;;;;;;0.10;0.10;;;;;;;;;;4921890;29;20046;-94
2022/03/14 12:24:36;;;;;;;0.20;0.20;;;;;;;;;;4904483;29;20427;-93
2022/03/14 12:27:02;;;;;;;0.10;0.10;;;;;;;;;;4938164;29;20055;-91
2022/03/14 12:29:35;;;;;;;0.10;0.10;;;;;;;;;;4905191;29;20480;-93
2022/03/14 12:32:24;;;;;;;0.10;0.10;;;;;;;;;;4905521;29;20234;-94
2022/03/14 12:35:09;;;;;;;0.10;0.10;;;;;;;;;;4913663;29;20083;-94
2022/03/14 12:37:35;;;;;;;0.10;0.10;;;;;;;;;;4905662;29;20512;-94
2022/03/14 12:40:02;;;;;;;0.10;0.10;;;;;;;;;;4921678;29;20207;-95
2022/03/14 12:42:28;;;;;;;0.20;0.20;;;;;;;;;;4904832;29;20036;-95
2022/03/14 12:45:13;;;;;;;0.55;0.50;;;;;;;;;;4905397;29;20039;-93
2022/03/14 12:47:41;;;;;;;0.25;0.25;;;;;;;;;;4920726;29;20052;-94
2022/03/14 12:50:07;;;;;;;0.10;0.10;;;;;;;;;;4905258;29;20048;-93
2022/03/14 12:52:33;;;;;;;0.10;0.10;;;;;;;;;;4904947;29;20035;-94
2022/03/14 12:54:59;;;;;;;0.52;0.52;;;;;;;;;;4905022;29;20066;-93
2022/03/14 12:57:25;;;;;;;0.10;0.10;;;;;;;;;;4904838;29;20036;-93
2022/03/14 12:59:58;;;;;;;0.30;0.30;;;;;;;;;;4904982;29;20628;-94
2022/03/14 13:02:25;;;;;;;0.28;0.28;;;;;;;;;;4905189;29;20051;-95
2022/03/14 13:05:04;;;;;;;0.22;0.22;;;;;;;;;;4904578;29;20044;-96
2022/03/14 13:07:32;;;;;;;0.10;0.10;;;;;;;;;;4905620;29;20484;-92
2022/03/14 13:09:59;;;;;;;0.10;0.10;;;;;;;;;;4909439;29;20095;-94
2022/03/14 13:12:32;;;;;;;0.20;0.20;;;;;;;;;;4915510;29;20039;-94
2022/03/14 13:15:08;;;;;;;0.50;0.43;;;;;;;;;;4913702;29;20039;-94
2022/03/14 13:17:34;;;;;;;0.00;0.00;;;;;;;;;;4939840;29;20040;-95
2022/03/14 13:20:00;;;;;;;0.13;0.13;;;;;;;;;;4907434;29;20040;-96
2022/03/14 13:22:29;;;;;;;0.10;0.10;;;;;;;;;;4906096;29;20042;-95
2022/03/14 13:24:55;;;;;;;0.10;0.10;;;;;;;;;;4906285;29;20040;-94
2022/03/14 13:27:24;;;;;;;0.73;0.40;;;;;;;;;;4894084;29;20103;-96
2022/03/14 13:29:53;;;;;;;0.10;0.10;;;;;;;;;;4910603;29;20054;-95
2022/03/14 13:32:24;;;;;;;0.37;0.37;;;;;;;;;;4910362;29;20479;-94
2022/03/14 13:35:03;;;;;;;0.20;0.20;;;;;;;;;;4919789;29;20292;-91
2022/03/14 13:37:29;;;;;;;0.10;0.10;;;;;;;;;;4903905;29;20059;-93
2022/03/14 13:39:55;;;;;;;0.75;0.10;;;;;;;;;;4904353;29;20054;-92
2022/03/14 13:42:21;;;;;;;0.22;0.22;;;;;;;;;;4904508;29;20130;-92
2022/03/14 13:44:49;;;;;;;0.10;0.10;;;;;;;;;;4904309;29;20048;-92
2022/03/14 13:47:21;;;;;;;0.55;0.40;;;;;;;;;;4904708;29;20116;-93
2022/03/14 13:49:47;;;;;;;0.10;0.10;;;;;;;;;;4904804;29;20044;-93
2022/03/14 13:52:14;;;;;;;0.10;0.10;;;;;;;;;;4905631;29;20052;-95
2022/03/14 13:54:44;;;;;;;0.10;0.10;;;;;;;;;;4916244;29;20043;-94
2022/03/14 13:57:11;;;;;;;0.20;0.20;;;;;;;;;;4922378;29;20223;-94
2022/03/14 13:59:46;;;;;;;0.10;0.10;;;;;;;;;;4907015;29;20107;-93
2022/03/14 14:02:13;;;;;;;0.43;0.30;;;;;;;;;;4907955;29;20044;-95
2022/03/14 14:04:39;;;;;;;0.13;0.13;;;;;;;;;;4907817;29;20456;-93
2022/03/14 14:07:17;;;;;;;0.13;0.13;;;;;;;;;;4922583;29;20322;-92
2022/03/14 14:09:44;;;;;;;0.30;0.30;;;;;;;;;;4922489;29;20135;-91
2022/03/14 14:12:16;;;;;;;0.00;0.00;;;;;;;;;;4907517;29;20135;-95
2022/03/14 14:14:43;;;;;;;0.10;0.10;;;;;;;;;;4939081;29;20047;-93
2022/03/14 14:17:12;;;;;;;0.10;0.10;;;;;;;;;;4908588;29;20039;-92
2022/03/14 14:20:02;;;;;;;0.10;0.10;;;;;;;;;;4907914;29;20040;-92
2022/03/14 14:22:38;;;;;;;0.10;0.10;;;;;;;;;;4923303;29;20086;-92
2022/03/14 14:25:08;;;;;;;0.13;0.13;;;;;;;;;;4908175;29;20075;-95
2022/03/14 14:27:48;;;;;;;0.17;0.17;;;;;;;;;;4930451;29;20079;-94
2022/03/14 14:30:14;;;;;;;0.08;0.08;;;;;;;;;;4916709;29;20122;-92
2022/03/14 14:32:40;;;;;;;0.10;0.10;;;;;;;;;;4907084;29;20067;-91
2022/03/14 14:35:06;;;;;;;0.10;0.10;;;;;;;;;;4911275;29;20251;-93
2022/03/14 14:37:38;;;;;;;0.10;0.10;;;;;;;;;;4907212;29;20086;-95
2022/03/14 14:40:05;;;;;;;0.03;0.03;;;;;;;;;;4906881;29;20047;-90
2022/03/14 14:42:31;;;;;;;0.10;0.10;;;;;;;;;;4906741;29;20043;-91
2022/03/14 14:44:58;;;;;;;0.10;0.10;;;;;;;;;;4906353;29;20209;-91